Terminal Aerodrome Forecast
Issued by NWS

Home | Current Version | Previous Version | Graphics & Text | Print | Product List | Glossary On
Versions: 1 2 3 4 5 6 7 8 9 10 11 12 13 14 15 16 17 18 19 20 21 22
000
FTUS43 KLSX 292000 CCA
TAFSUS
TAF COR
KSUS 292028Z 2920/3018 16007KT P6SM SCT040
     FM292300 19007KT 6SM -SHRA VCTS SCT030CB BKN070
     FM300200 19008KT P6SM BKN060
     FM301200 20008KT P6SM SCT060=

USA.gov is the U.S. government's official web portal to all federal, state and local government web resources and services.